createdAt,value
2023-05-16T00:00:03.896Z,623.00
2023-05-16T00:01:03.941Z,622.00
2023-05-16T00:02:03.112Z,622.00
2023-05-16T00:03:03.106Z,625.00
2023-05-16T00:04:03.144Z,622.00
2023-05-16T00:05:03.151Z,623.00
2023-05-16T00:06:03.048Z,627.00
2023-05-16T00:07:02.980Z,620.00
2023-05-16T00:08:03.030Z,614.00
2023-05-16T00:09:03.029Z,621.00
2023-05-16T00:10:04.022Z,617.00
2023-05-16T00:11:04.085Z,619.00
2023-05-16T00:12:04.051Z,622.00
2023-05-16T00:13:03.049Z,620.00
2023-05-16T00:14:04.059Z,616.00
2023-05-16T00:15:04.097Z,622.00
2023-05-16T00:16:04.090Z,621.00
2023-05-16T00:17:04.247Z,620.00
2023-05-16T00:18:04.187Z,622.00
2023-05-16T00:19:03.306Z,613.00
2023-05-16T00:20:03.154Z,619.00
2023-05-16T00:21:03.177Z,616.00
2023-05-16T00:22:04.241Z,616.00
2023-05-16T00:23:04.245Z,617.00
2023-05-16T00:24:03.231Z,614.00
2023-05-16T00:25:04.221Z,615.00
2023-05-16T00:26:04.226Z,618.00
2023-05-16T00:27:03.256Z,617.00
2023-05-16T00:28:04.257Z,615.00
2023-05-16T00:29:03.276Z,615.00
2023-05-16T00:30:04.311Z,617.00
2023-05-16T00:31:04.327Z,616.00
2023-05-16T00:32:03.424Z,611.00
2023-05-16T00:33:03.428Z,606.00
2023-05-16T00:34:04.422Z,613.00
2023-05-16T00:35:04.411Z,613.00
2023-05-16T00:36:04.409Z,613.00
2023-05-16T00:37:04.411Z,617.00
2023-05-16T00:38:03.410Z,613.00
2023-05-16T00:39:03.463Z,615.00
2023-05-16T00:40:04.473Z,612.00
2023-05-16T00:41:03.478Z,610.00
2023-05-16T00:42:04.490Z,616.00
2023-05-16T00:43:04.510Z,612.00
2023-05-16T00:44:03.541Z,611.00
2023-05-16T00:45:04.559Z,607.00
2023-05-16T00:46:03.576Z,610.00
2023-05-16T00:47:04.597Z,618.00
2023-05-16T00:48:03.593Z,612.00
2023-05-16T00:49:04.603Z,610.00
2023-05-16T00:50:03.600Z,613.00
2023-05-16T00:51:03.618Z,609.00
2023-05-16T00:52:03.660Z,614.00
2023-05-16T00:53:04.658Z,605.00
2023-05-16T00:54:03.702Z,613.00
2023-05-16T00:55:03.738Z,616.00
2023-05-16T00:56:04.740Z,608.00
2023-05-16T00:57:03.763Z,610.00
2023-05-16T00:58:03.791Z,615.00
2023-05-16T00:59:03.760Z,609.00
2023-05-16T01:00:04.770Z,608.00
2023-05-16T01:01:04.007Z,608.00
2023-05-16T01:02:03.860Z,608.00
2023-05-16T01:03:03.908Z,606.00
2023-05-16T01:04:05.172Z,615.00
2023-05-16T01:05:04.896Z,611.00
2023-05-16T01:06:03.889Z,612.00
2023-05-16T01:07:04.886Z,612.00
2023-05-16T01:08:03.902Z,610.00
2023-05-16T01:09:03.916Z,611.00
2023-05-16T01:10:04.937Z,611.00
2023-05-16T01:11:03.955Z,605.00
2023-05-16T01:12:03.976Z,612.00
2023-05-16T01:13:04.961Z,606.00
2023-05-16T01:14:05.000Z,609.00
2023-05-16T01:15:05.063Z,609.00
2023-05-16T01:16:05.050Z,606.00
2023-05-16T01:17:04.029Z,609.00
2023-05-16T01:18:05.122Z,611.00
2023-05-16T01:19:05.146Z,604.00
2023-05-16T01:20:05.089Z,611.00
2023-05-16T01:21:04.194Z,610.00
2023-05-16T01:22:04.088Z,607.00
2023-05-16T01:23:05.123Z,607.00
2023-05-16T01:24:05.156Z,611.00
2023-05-16T01:25:04.136Z,604.00
2023-05-16T01:26:04.169Z,610.00
2023-05-16T01:27:05.197Z,608.00
2023-05-16T01:28:05.246Z,612.00
2023-05-16T01:29:04.240Z,607.00
2023-05-16T01:30:05.307Z,609.00
2023-05-16T01:31:05.330Z,612.00
2023-05-16T01:32:04.307Z,605.00
2023-05-16T01:33:04.325Z,602.00
2023-05-16T01:34:04.306Z,607.00
2023-05-16T01:35:05.330Z,608.00
2023-05-16T01:36:05.357Z,609.00
2023-05-16T01:37:05.368Z,610.00
2023-05-16T01:38:04.396Z,605.00
2023-05-16T01:39:05.440Z,602.00
2023-05-16T01:40:05.468Z,600.00
2023-05-16T01:41:05.466Z,610.00
2023-05-16T01:42:05.479Z,603.00
2023-05-16T01:43:04.517Z,609.00
2023-05-16T01:44:05.537Z,606.00
2023-05-16T01:45:05.542Z,603.00
2023-05-16T01:46:05.586Z,609.00
2023-05-16T01:47:05.800Z,605.00
2023-05-16T01:48:05.898Z,607.00
2023-05-16T01:49:05.627Z,607.00
2023-05-16T01:50:04.692Z,608.00
2023-05-16T01:51:05.690Z,604.00
2023-05-16T01:52:04.714Z,607.00
2023-05-16T01:53:05.718Z,606.00
2023-05-16T01:54:05.744Z,601.00
2023-05-16T01:55:05.740Z,604.00
2023-05-16T01:56:05.765Z,599.00
2023-05-16T01:57:05.792Z,609.00
2023-05-16T01:58:05.837Z,611.00
2023-05-16T01:59:05.816Z,609.00
2023-05-16T02:00:04.886Z,606.00
2023-05-16T02:01:05.939Z,601.00
2023-05-16T02:02:04.901Z,603.00
2023-05-16T02:03:05.970Z,599.00
2023-05-16T02:04:05.007Z,603.00
2023-05-16T02:05:04.956Z,605.00
2023-05-16T02:06:04.985Z,606.00
2023-05-16T02:07:06.025Z,603.00
2023-05-16T02:08:06.058Z,592.00
2023-05-16T02:09:05.051Z,601.00
2023-05-16T02:10:06.073Z,602.00
2023-05-16T02:11:05.076Z,605.00
2023-05-16T02:12:05.141Z,596.00
2023-05-16T02:13:06.147Z,606.00
2023-05-16T02:14:05.210Z,601.00
2023-05-16T02:15:06.207Z,602.00
2023-05-16T02:16:05.321Z,602.00
2023-05-16T02:17:06.388Z,608.00
2023-05-16T02:18:05.382Z,604.00
2023-05-16T02:19:06.331Z,601.00
2023-05-16T02:20:06.330Z,594.00
2023-05-16T02:21:06.341Z,598.00
2023-05-16T02:22:05.355Z,605.00
2023-05-16T02:23:06.374Z,602.00
2023-05-16T02:24:05.423Z,600.00
2023-05-16T02:25:06.441Z,601.00
2023-05-16T02:26:05.454Z,607.00
2023-05-16T02:27:06.506Z,601.00
2023-05-16T02:28:05.511Z,605.00
2023-05-16T02:29:06.553Z,601.00
2023-05-16T02:30:05.586Z,600.00
2023-05-16T02:31:06.687Z,596.00
2023-05-16T02:32:05.657Z,604.00
2023-05-16T02:33:06.693Z,601.00
2023-05-16T02:34:06.681Z,600.00
2023-05-16T02:35:05.707Z,601.00
2023-05-16T02:36:05.727Z,603.00
2023-05-16T02:37:06.779Z,598.00
2023-05-16T02:38:05.809Z,600.00
2023-05-16T02:39:05.854Z,600.00
2023-05-16T02:40:05.875Z,599.00
2023-05-16T02:41:06.881Z,596.00
2023-05-16T02:42:06.916Z,596.00
2023-05-16T02:43:06.949Z,601.00
2023-05-16T02:44:05.984Z,596.00
2023-05-16T02:45:07.023Z,601.00
2023-05-16T02:46:07.045Z,589.00
2023-05-16T02:47:06.070Z,599.00
2023-05-16T02:48:07.133Z,592.00
2023-05-16T02:49:07.195Z,596.00
2023-05-16T02:50:07.167Z,601.00
2023-05-16T02:51:07.164Z,600.00
2023-05-16T02:52:06.216Z,599.00
2023-05-16T02:53:07.237Z,592.00
2023-05-16T02:54:06.265Z,593.00
2023-05-16T02:56:06.291Z,606.00
2023-05-16T02:57:06.286Z,599.00
2023-05-16T02:58:06.285Z,592.00
2023-05-16T02:59:07.263Z,600.00
2023-05-16T03:00:06.347Z,592.00
2023-05-16T03:01:07.277Z,592.00
2023-05-16T03:02:07.345Z,600.00
2023-05-16T03:03:07.314Z,599.00
2023-05-16T03:04:07.419Z,598.00
2023-05-16T03:05:06.279Z,593.00
2023-05-16T03:06:06.328Z,591.00
2023-05-16T03:07:06.216Z,589.00
2023-05-16T03:08:07.184Z,594.00
2023-05-16T03:09:07.185Z,597.00
2023-05-16T03:10:07.187Z,596.00
2023-05-16T03:11:07.179Z,591.00
2023-05-16T03:12:07.173Z,597.00
2023-05-16T03:13:07.146Z,589.00
2023-05-16T03:14:06.154Z,588.00
2023-05-16T03:15:06.222Z,595.00
2023-05-16T03:16:07.181Z,597.00
2023-05-16T03:17:06.149Z,593.00
2023-05-16T03:18:06.186Z,595.00
2023-05-16T03:19:07.375Z,598.00
2023-05-16T03:20:07.230Z,598.00
2023-05-16T03:21:06.128Z,583.00
2023-05-16T03:22:07.103Z,596.00
2023-05-16T03:23:06.098Z,589.00
2023-05-16T03:24:07.156Z,593.00
2023-05-16T03:25:07.081Z,594.00
2023-05-16T03:26:06.067Z,591.00
2023-05-16T03:27:07.112Z,592.00
2023-05-16T03:28:06.087Z,592.00
2023-05-16T03:29:07.054Z,596.00
2023-05-16T03:30:07.037Z,597.00
2023-05-16T03:31:06.173Z,588.00
2023-05-16T03:32:06.316Z,595.00
2023-05-16T03:33:06.107Z,591.00
2023-05-16T03:34:07.054Z,592.00
2023-05-16T03:35:07.108Z,592.00
2023-05-16T03:36:06.164Z,591.00
2023-05-16T03:37:07.164Z,593.00
2023-05-16T03:38:06.198Z,591.00
2023-05-16T03:39:07.238Z,592.00
2023-05-16T03:40:07.303Z,591.00
2023-05-16T03:41:06.290Z,592.00
2023-05-16T03:42:06.348Z,588.00
2023-05-16T03:43:07.411Z,591.00
2023-05-16T03:44:06.403Z,589.00
2023-05-16T03:45:07.453Z,589.00
2023-05-16T03:46:06.534Z,587.00
2023-05-16T03:47:07.512Z,587.00
2023-05-16T03:48:06.604Z,588.00
2023-05-16T03:49:06.563Z,591.00
2023-05-16T03:50:07.649Z,591.00
2023-05-16T03:51:07.677Z,585.00
2023-05-16T03:52:07.704Z,587.00
2023-05-16T03:53:07.737Z,584.00
2023-05-16T03:54:07.745Z,589.00
2023-05-16T03:55:06.789Z,588.00
2023-05-16T03:56:07.814Z,588.00
2023-05-16T03:57:07.853Z,589.00
2023-05-16T03:58:07.953Z,589.00
2023-05-16T03:59:06.945Z,590.00
2023-05-16T04:00:07.960Z,585.00
2023-05-16T04:01:08.013Z,584.00
2023-05-16T04:02:07.114Z,587.00
2023-05-16T04:03:08.114Z,589.00
2023-05-16T04:04:07.136Z,586.00
2023-05-16T04:05:08.329Z,587.00
2023-05-16T04:06:07.296Z,587.00
2023-05-16T04:07:08.233Z,588.00
2023-05-16T04:08:08.304Z,586.00
2023-05-16T04:09:07.319Z,586.00
2023-05-16T04:10:07.323Z,587.00
2023-05-16T04:11:08.377Z,586.00
2023-05-16T04:12:08.437Z,582.00
2023-05-16T04:13:08.450Z,585.00
2023-05-16T04:14:08.597Z,584.00
2023-05-16T04:15:07.519Z,585.00
2023-05-16T04:16:07.591Z,585.00
2023-05-16T04:17:07.721Z,584.00
2023-05-16T04:18:08.726Z,584.00
2023-05-16T04:19:07.800Z,577.00
2023-05-16T04:20:08.743Z,582.00
2023-05-16T04:21:08.786Z,581.00
2023-05-16T04:22:07.818Z,579.00
2023-05-16T04:23:07.866Z,581.00
2023-05-16T04:24:08.943Z,578.00
2023-05-16T04:25:08.937Z,578.00
2023-05-16T04:26:08.973Z,581.00
2023-05-16T04:27:08.024Z,582.00
2023-05-16T04:28:08.060Z,581.00
2023-05-16T04:29:09.111Z,582.00
2023-05-16T04:30:08.169Z,576.00
2023-05-16T04:31:09.212Z,581.00
2023-05-16T04:32:09.238Z,581.00
2023-05-16T04:33:08.327Z,574.00
2023-05-16T04:34:08.311Z,579.00
2023-05-16T04:35:09.385Z,580.00
2023-05-16T04:36:09.410Z,581.00
2023-05-16T04:37:08.692Z,576.00
2023-05-16T04:38:08.506Z,578.00
2023-05-16T04:39:08.546Z,577.00
2023-05-16T04:40:08.598Z,579.00
2023-05-16T04:41:08.618Z,573.00
2023-05-16T04:42:09.662Z,575.00
2023-05-16T04:43:09.725Z,578.00
2023-05-16T04:44:08.757Z,574.00
2023-05-16T04:45:09.805Z,576.00
2023-05-16T04:46:09.861Z,579.00
2023-05-16T04:47:09.892Z,577.00
2023-05-16T04:48:09.951Z,579.00
2023-05-16T04:49:08.979Z,579.00
2023-05-16T04:50:10.038Z,577.00
2023-05-16T04:51:10.044Z,575.00
2023-05-16T04:52:10.107Z,581.00
2023-05-16T04:53:09.128Z,577.00
2023-05-16T04:54:10.164Z,582.00
2023-05-16T04:55:10.243Z,583.00
2023-05-16T04:56:09.260Z,616.00
2023-05-16T04:57:09.247Z,633.00
2023-05-16T04:58:10.252Z,653.00
2023-05-16T04:59:10.292Z,659.00
2023-05-16T05:00:10.378Z,677.00
2023-05-16T05:01:09.476Z,703.00
2023-05-16T05:02:10.491Z,719.00
2023-05-16T05:03:10.532Z,752.00
2023-05-16T05:04:09.506Z,762.00
2023-05-16T05:05:10.546Z,775.00
2023-05-16T05:06:10.555Z,773.00
2023-05-16T05:07:10.583Z,781.00
2023-05-16T05:08:10.586Z,784.00
2023-05-16T05:09:09.635Z,790.00
2023-05-16T05:10:10.640Z,794.00
2023-05-16T05:11:09.675Z,803.00
2023-05-16T05:12:10.697Z,795.00
2023-05-16T05:13:10.662Z,799.00
2023-05-16T05:14:09.678Z,805.00
2023-05-16T05:15:10.687Z,806.00
2023-05-16T05:16:10.682Z,813.00
2023-05-16T05:17:09.768Z,811.00
2023-05-16T05:18:09.819Z,808.00
2023-05-16T05:19:09.742Z,805.00
2023-05-16T05:20:09.756Z,798.00
2023-05-16T05:21:10.754Z,803.00
2023-05-16T05:22:09.780Z,798.00
2023-05-16T05:23:09.765Z,807.00
2023-05-16T05:24:10.785Z,814.00
2023-05-16T05:25:10.800Z,819.00
2023-05-16T05:26:09.825Z,811.00
2023-05-16T05:27:09.849Z,818.00
2023-05-16T05:28:10.820Z,840.00
2023-05-16T05:29:09.845Z,847.00
2023-05-16T05:30:10.823Z,847.00
2023-05-16T05:31:10.884Z,844.00
2023-05-16T05:32:09.980Z,841.00
2023-05-16T05:33:10.893Z,832.00
2023-05-16T05:34:09.846Z,838.00
2023-05-16T05:35:09.897Z,842.00
2023-05-16T05:36:10.926Z,842.00
2023-05-16T05:37:09.973Z,834.00
2023-05-16T05:38:11.001Z,815.00
2023-05-16T05:39:11.060Z,817.00
2023-05-16T05:40:11.100Z,824.00
2023-05-16T05:41:11.195Z,819.00
2023-05-16T05:42:11.229Z,822.00
2023-05-16T05:43:11.242Z,827.00
2023-05-16T05:44:10.252Z,815.00
2023-05-16T05:45:11.279Z,795.00
2023-05-16T05:46:11.320Z,796.00
2023-05-16T05:47:10.312Z,799.00
2023-05-16T05:48:10.405Z,810.00
2023-05-16T05:49:10.401Z,753.00
2023-05-16T05:50:10.400Z,638.00
2023-05-16T05:51:11.417Z,616.00
2023-05-16T05:52:11.891Z,640.00
2023-05-16T05:53:10.544Z,614.00
2023-05-16T05:54:11.543Z,636.00
2023-05-16T05:55:11.574Z,595.00
2023-05-16T05:56:11.537Z,583.00
2023-05-16T05:57:11.542Z,589.00
2023-05-16T05:58:11.560Z,589.00
2023-05-16T05:59:11.595Z,601.00
2023-05-16T06:00:11.653Z,623.00
2023-05-16T06:01:10.568Z,614.00
2023-05-16T06:02:11.987Z,655.00
2023-05-16T06:03:10.599Z,661.00
2023-05-16T06:04:11.650Z,668.00
2023-05-16T06:05:10.717Z,696.00
2023-05-16T06:06:11.752Z,738.00
2023-05-16T06:07:11.777Z,752.00
2023-05-16T06:08:11.776Z,771.00
2023-05-16T06:09:11.795Z,787.00
2023-05-16T06:10:11.815Z,799.00
2023-05-16T06:11:10.820Z,798.00
2023-05-16T06:12:11.828Z,808.00
2023-05-16T06:13:10.809Z,807.00
2023-05-16T06:14:10.830Z,795.00
2023-05-16T06:15:10.857Z,787.00
2023-05-16T06:16:11.866Z,794.00
2023-05-16T06:17:11.986Z,790.00
2023-05-16T06:18:10.985Z,794.00
2023-05-16T06:19:12.003Z,670.00
2023-05-16T06:20:11.976Z,604.00
2023-05-16T06:21:12.007Z,542.00
2023-05-16T06:22:11.050Z,534.00
2023-05-16T06:23:11.104Z,538.00
2023-05-16T06:24:11.169Z,510.00
2023-05-16T06:25:12.173Z,510.00
2023-05-16T06:26:11.189Z,509.00
2023-05-16T06:27:12.240Z,500.00
2023-05-16T06:28:12.303Z,500.00
2023-05-16T06:29:11.378Z,505.00
2023-05-16T06:30:12.435Z,539.00
2023-05-16T06:31:12.524Z,587.00
2023-05-16T06:32:13.517Z,598.00
2023-05-16T06:33:11.523Z,617.00
2023-05-16T06:34:12.504Z,634.00
2023-05-16T06:35:11.569Z,643.00
2023-05-16T06:36:12.630Z,657.00
2023-05-16T06:37:12.684Z,669.00
2023-05-16T06:38:12.708Z,711.00
2023-05-16T06:39:12.717Z,725.00
2023-05-16T06:40:12.739Z,745.00
2023-05-16T06:41:12.744Z,773.00
2023-05-16T06:42:11.764Z,803.00
2023-05-16T06:43:12.764Z,847.00
2023-05-16T06:44:12.752Z,853.00
2023-05-16T06:45:12.751Z,885.00
2023-05-16T06:46:12.782Z,908.00
2023-05-16T06:47:12.771Z,936.00
2023-05-16T06:48:12.784Z,944.00
2023-05-16T06:49:12.738Z,962.00
2023-05-16T06:50:12.748Z,965.00
2023-05-16T06:51:11.735Z,980.00
2023-05-16T06:52:12.732Z,994.00
2023-05-16T06:53:12.916Z,1050.00
2023-05-16T06:54:11.799Z,1071.00
2023-05-16T06:55:11.826Z,1077.00
2023-05-16T06:56:11.849Z,1084.00
2023-05-16T06:57:11.869Z,1107.00
2023-05-16T06:58:11.953Z,1082.00
2023-05-16T06:59:11.917Z,1097.00
2023-05-16T07:00:13.985Z,1113.00
2023-05-16T07:01:13.034Z,1117.00
2023-05-16T07:02:12.973Z,1113.00
2023-05-16T07:03:13.070Z,1153.00
2023-05-16T07:04:13.199Z,1088.00
2023-05-16T07:05:11.994Z,1021.00
2023-05-16T07:06:13.017Z,991.00
2023-05-16T07:07:13.014Z,965.00
2023-05-16T07:08:13.068Z,1005.00
2023-05-16T07:09:13.015Z,955.00
2023-05-16T07:10:13.050Z,987.00
2023-05-16T07:11:12.056Z,890.00
2023-05-16T07:12:13.084Z,761.00
2023-05-16T07:13:13.159Z,648.00
2023-05-16T07:14:13.185Z,632.00
2023-05-16T07:15:12.205Z,618.00
2023-05-16T07:16:13.243Z,625.00
2023-05-16T07:17:13.222Z,636.00
2023-05-16T07:18:13.226Z,654.00
2023-05-16T07:19:13.337Z,632.00
2023-05-16T07:20:13.210Z,658.00
2023-05-16T07:21:13.205Z,659.00
2023-05-16T07:22:13.218Z,650.00
2023-05-16T07:23:13.251Z,628.00
2023-05-16T07:24:13.280Z,658.00
2023-05-16T07:25:12.333Z,654.00
2023-05-16T07:26:13.387Z,664.00
2023-05-16T07:27:13.468Z,680.00
2023-05-16T07:28:13.506Z,706.00
2023-05-16T07:29:12.554Z,712.00
2023-05-16T07:30:13.638Z,661.00
2023-05-16T07:31:12.709Z,619.00
2023-05-16T07:32:13.848Z,624.00
2023-05-16T07:33:12.823Z,593.00
2023-05-16T07:34:14.002Z,587.00
2023-05-16T07:35:13.819Z,573.00
2023-05-16T07:36:16.989Z,563.00
2023-05-16T07:37:12.813Z,563.00
2023-05-16T07:38:12.802Z,567.00
2023-05-16T07:39:13.756Z,591.00
2023-05-16T07:40:13.775Z,755.00
2023-05-16T07:41:12.741Z,860.00
2023-05-16T07:42:12.739Z,816.00
2023-05-16T07:43:13.749Z,738.00
2023-05-16T07:44:13.714Z,698.00
2023-05-16T07:45:13.699Z,654.00
2023-05-16T07:46:13.743Z,655.00
2023-05-16T07:47:13.696Z,704.00
2023-05-16T07:48:12.987Z,754.00
2023-05-16T07:49:12.673Z,808.00
2023-05-16T07:50:13.669Z,855.00
2023-05-16T07:51:12.729Z,873.00
2023-05-16T07:52:12.703Z,929.00
2023-05-16T07:53:12.942Z,858.00
2023-05-16T07:54:12.751Z,862.00
2023-05-16T07:55:13.794Z,922.00
2023-05-16T07:56:13.808Z,911.00
2023-05-16T07:57:12.813Z,909.00
2023-05-16T07:58:12.826Z,938.00
2023-05-16T07:59:12.861Z,919.00
2023-05-16T08:00:13.831Z,942.00
2023-05-16T08:01:13.871Z,944.00
2023-05-16T08:02:12.892Z,966.00
2023-05-16T08:03:13.992Z,996.00
2023-05-16T08:04:13.822Z,999.00
2023-05-16T08:05:13.907Z,991.00
2023-05-16T08:06:12.936Z,1003.00
2023-05-16T08:07:14.006Z,1012.00
2023-05-16T08:08:13.841Z,1027.00
2023-05-16T08:09:12.821Z,1025.00
2023-05-16T08:10:13.741Z,1039.00
2023-05-16T08:11:12.819Z,1081.00
2023-05-16T08:12:13.817Z,1045.00
2023-05-16T08:13:12.812Z,1032.00
2023-05-16T08:14:12.815Z,1050.00
2023-05-16T08:15:12.884Z,1050.00
2023-05-16T08:16:13.928Z,1054.00
2023-05-16T08:17:14.006Z,1028.00
2023-05-16T08:18:14.130Z,1009.00
2023-05-16T08:19:14.168Z,1003.00
2023-05-16T08:20:13.130Z,987.00
2023-05-16T08:21:13.207Z,991.00
2023-05-16T08:22:14.262Z,1012.00
2023-05-16T08:23:13.362Z,1001.00
2023-05-16T08:24:13.368Z,987.00
2023-05-16T08:25:14.435Z,1014.00
2023-05-16T08:26:13.471Z,999.00
2023-05-16T08:27:14.520Z,998.00
2023-05-16T08:28:14.590Z,1009.00
2023-05-16T08:29:13.647Z,1003.00
2023-05-16T08:30:14.710Z,1008.00
2023-05-16T08:31:13.818Z,1020.00
2023-05-16T08:32:14.817Z,1020.00
2023-05-16T08:33:13.984Z,859.00
2023-05-16T08:34:14.852Z,617.00
2023-05-16T08:35:14.891Z,582.00
2023-05-16T08:36:14.918Z,547.00
2023-05-16T08:37:17.202Z,544.00
2023-05-16T08:38:15.169Z,534.00
2023-05-16T08:39:15.015Z,541.00
2023-05-16T08:40:14.987Z,510.00
2023-05-16T08:41:14.982Z,499.00
2023-05-16T08:42:13.982Z,511.00
2023-05-16T08:43:14.956Z,566.00
2023-05-16T08:44:14.922Z,575.00
2023-05-16T08:45:14.937Z,553.00
2023-05-16T08:46:14.969Z,556.00
2023-05-16T08:47:14.940Z,524.00
2023-05-16T08:48:14.951Z,522.00
2023-05-16T08:49:13.915Z,521.00
2023-05-16T08:50:13.924Z,500.00
2023-05-16T08:51:14.913Z,519.00
2023-05-16T08:52:14.880Z,536.00
2023-05-16T08:53:14.883Z,531.00
2023-05-16T08:54:14.876Z,546.00
2023-05-16T08:55:13.895Z,574.00
2023-05-16T08:56:13.869Z,587.00
2023-05-16T08:57:14.869Z,629.00
2023-05-16T08:58:14.970Z,631.00
2023-05-16T08:59:13.850Z,533.00
2023-05-16T09:00:13.811Z,516.00
2023-05-16T09:01:13.873Z,501.00
2023-05-16T09:02:14.814Z,489.00
2023-05-16T09:03:14.839Z,512.00
2023-05-16T09:04:13.817Z,536.00
2023-05-16T09:05:14.781Z,503.00
2023-05-16T09:06:14.785Z,510.00
2023-05-16T09:07:13.765Z,525.00
2023-05-16T09:08:14.760Z,543.00
2023-05-16T09:09:14.771Z,560.00
2023-05-16T09:10:13.958Z,607.00
2023-05-16T09:11:14.903Z,628.00
2023-05-16T09:12:14.944Z,639.00
2023-05-16T09:13:15.333Z,596.00
2023-05-16T09:14:15.008Z,631.00
2023-05-16T09:15:15.062Z,634.00
2023-05-16T09:16:14.035Z,673.00
2023-05-16T09:17:16.732Z,661.00
2023-05-16T09:18:16.160Z,661.00
2023-05-16T09:19:15.182Z,636.00
2023-05-16T09:20:15.060Z,663.00
2023-05-16T09:21:15.083Z,692.00
2023-05-16T09:22:15.190Z,637.00
2023-05-16T09:23:15.068Z,735.00
2023-05-16T09:24:14.035Z,695.00
2023-05-16T09:25:28.316Z,745.00
2023-05-16T09:26:15.009Z,747.00
2023-05-16T09:27:15.318Z,755.00
2023-05-16T09:28:14.014Z,772.00
2023-05-16T09:29:15.034Z,822.00
2023-05-16T09:30:14.997Z,909.00
2023-05-16T09:31:14.039Z,936.00
2023-05-16T09:32:13.970Z,933.00
2023-05-16T09:33:15.061Z,975.00
2023-05-16T09:34:13.962Z,995.00
2023-05-16T09:35:13.948Z,991.00
2023-05-16T09:36:14.962Z,1032.00
2023-05-16T09:37:14.942Z,1034.00
2023-05-16T09:38:14.966Z,1074.00
2023-05-16T09:39:13.914Z,1103.00
2023-05-16T09:40:13.991Z,1107.00
2023-05-16T09:41:13.907Z,1132.00
2023-05-16T09:42:13.911Z,1167.00
2023-05-16T09:43:13.944Z,1197.00
2023-05-16T09:44:13.891Z,1218.00
2023-05-16T09:45:13.881Z,1237.00
2023-05-16T09:46:14.945Z,1247.00
2023-05-16T09:47:14.894Z,1311.00
2023-05-16T09:48:13.931Z,1333.00
2023-05-16T09:49:14.993Z,1329.00
2023-05-16T09:50:17.149Z,1370.00
2023-05-16T09:51:13.976Z,1446.00
2023-05-16T09:52:15.011Z,1465.00
2023-05-16T09:53:14.990Z,1433.00
2023-05-16T09:54:13.978Z,1415.00
2023-05-16T09:55:13.978Z,1390.00
2023-05-16T09:56:14.956Z,1385.00
2023-05-16T09:57:13.953Z,1389.00
2023-05-16T09:58:14.938Z,1378.00
2023-05-16T09:59:17.015Z,1387.00
2023-05-16T10:00:14.913Z,1388.00
2023-05-16T10:01:14.927Z,1390.00
2023-05-16T10:02:15.032Z,1390.00
2023-05-16T10:03:14.995Z,1395.00
2023-05-16T10:04:15.061Z,1389.00
2023-05-16T10:05:13.884Z,1388.00
2023-05-16T10:06:14.864Z,1394.00
2023-05-16T10:07:14.872Z,1385.00
2023-05-16T10:08:14.877Z,1387.00
2023-05-16T10:09:14.851Z,1394.00
2023-05-16T10:10:13.862Z,1384.00
2023-05-16T10:11:13.832Z,1374.00
2023-05-16T10:12:14.828Z,1393.00
2023-05-16T10:13:13.829Z,1376.00
2023-05-16T10:14:13.841Z,1383.00
2023-05-16T10:15:13.866Z,1389.00
2023-05-16T10:16:13.869Z,1368.00
2023-05-16T10:17:14.786Z,1372.00
2023-05-16T10:18:14.815Z,1360.00
2023-05-16T10:19:13.915Z,1358.00
2023-05-16T10:20:14.769Z,1354.00
2023-05-16T10:21:13.758Z,1372.00
2023-05-16T10:22:14.758Z,1357.00
2023-05-16T10:23:14.758Z,1352.00
2023-05-16T10:24:14.734Z,1356.00
2023-05-16T10:25:14.731Z,1364.00
2023-05-16T10:26:14.902Z,1349.00
2023-05-16T10:27:13.716Z,1344.00
2023-05-16T10:28:14.711Z,1353.00
2023-05-16T10:29:14.720Z,1345.00
2023-05-16T10:30:13.680Z,1341.00
2023-05-16T10:31:13.809Z,1347.00
2023-05-16T10:32:13.786Z,1348.00
2023-05-16T10:33:13.864Z,1332.00
2023-05-16T10:34:13.646Z,1342.00
2023-05-16T10:35:14.650Z,1337.00
2023-05-16T10:36:13.655Z,1325.00
2023-05-16T10:37:14.637Z,1324.00
2023-05-16T10:38:14.622Z,1342.00
2023-05-16T10:39:14.658Z,1324.00
2023-05-16T10:40:14.686Z,1322.00
2023-05-16T10:41:14.700Z,1333.00
2023-05-16T10:42:14.722Z,1315.00
2023-05-16T10:43:13.792Z,1320.00
2023-05-16T10:44:15.011Z,1313.00
2023-05-16T10:45:14.830Z,1305.00
2023-05-16T10:46:15.094Z,1321.00
2023-05-16T10:47:14.087Z,1300.00
2023-05-16T10:48:14.987Z,1308.00
2023-05-16T10:49:15.016Z,1305.00
2023-05-16T10:50:14.989Z,1299.00
2023-05-16T10:51:15.029Z,1298.00
2023-05-16T10:52:15.066Z,1299.00
2023-05-16T10:53:15.126Z,1296.00
2023-05-16T10:54:14.138Z,1298.00
2023-05-16T10:55:14.157Z,1296.00
2023-05-16T10:56:14.190Z,1308.00
2023-05-16T10:57:15.218Z,1279.00
2023-05-16T10:58:14.346Z,1278.00
2023-05-16T10:59:15.307Z,1276.00
2023-05-16T11:00:15.356Z,1274.00
2023-05-16T11:01:15.443Z,1266.00
2023-05-16T11:02:14.479Z,1259.00
2023-05-16T11:03:14.571Z,1260.00
2023-05-16T11:04:15.455Z,1262.00
2023-05-16T11:05:14.497Z,1253.00
2023-05-16T11:06:15.534Z,1242.00
2023-05-16T11:07:15.554Z,1256.00
2023-05-16T11:08:14.583Z,1240.00
2023-05-16T11:09:14.591Z,1248.00
2023-05-16T11:10:14.658Z,1255.00
2023-05-16T11:11:14.646Z,1241.00
2023-05-16T11:12:14.691Z,1241.00
2023-05-16T11:13:15.710Z,1243.00
2023-05-16T11:14:15.742Z,1230.00
2023-05-16T11:15:15.752Z,1236.00
2023-05-16T11:16:14.779Z,1241.00
2023-05-16T11:17:15.067Z,1212.00
2023-05-16T11:18:15.921Z,1232.00
2023-05-16T11:19:14.960Z,1218.00
2023-05-16T11:20:15.889Z,1242.00
2023-05-16T11:21:14.926Z,1211.00
2023-05-16T11:22:14.936Z,1219.00
2023-05-16T11:23:15.969Z,1226.00
2023-05-16T11:24:16.007Z,1226.00
2023-05-16T11:25:15.065Z,1219.00
2023-05-16T11:26:16.057Z,1219.00
2023-05-16T11:27:16.075Z,1204.00
2023-05-16T11:28:16.305Z,1211.00
2023-05-16T11:29:16.114Z,1219.00
2023-05-16T11:30:15.221Z,1204.00
2023-05-16T11:31:15.203Z,1191.00
2023-05-16T11:32:16.187Z,1224.00
2023-05-16T11:33:15.256Z,1212.00
2023-05-16T11:34:15.334Z,1215.00
2023-05-16T11:35:16.467Z,1225.00
2023-05-16T11:36:16.792Z,1264.00
2023-05-16T11:37:16.297Z,1260.00
2023-05-16T11:38:16.330Z,1284.00
2023-05-16T11:39:16.564Z,1283.00
2023-05-16T11:40:15.421Z,1313.00
2023-05-16T11:41:15.383Z,1293.00
2023-05-16T11:42:16.355Z,1327.00
2023-05-16T11:43:16.376Z,1315.00
2023-05-16T11:44:16.389Z,1325.00
2023-05-16T11:45:16.433Z,1313.00
2023-05-16T11:46:16.583Z,1319.00
2023-05-16T11:47:16.462Z,1300.00
2023-05-16T11:48:24.817Z,1304.00
2023-05-16T11:49:16.494Z,1305.00
2023-05-16T11:50:15.433Z,1307.00
2023-05-16T11:51:15.479Z,1304.00
2023-05-16T11:52:16.416Z,1310.00
2023-05-16T11:53:15.400Z,1297.00
2023-05-16T11:54:15.450Z,1293.00
2023-05-16T11:55:28.225Z,1310.00
2023-05-16T11:56:16.390Z,1311.00
2023-05-16T11:57:15.383Z,1312.00
2023-05-16T11:58:15.384Z,1310.00
2023-05-16T11:59:16.367Z,1293.00
2023-05-16T12:00:15.363Z,1295.00
2023-05-16T12:01:16.378Z,1319.00
2023-05-16T12:02:16.365Z,1299.00
2023-05-16T12:03:16.462Z,1293.00
2023-05-16T12:04:16.602Z,1290.00
2023-05-16T12:05:16.391Z,1283.00
2023-05-16T12:06:16.318Z,1290.00
2023-05-16T12:07:16.395Z,1287.00
2023-05-16T12:08:16.302Z,1268.00
2023-05-16T12:09:18.201Z,1287.00
2023-05-16T12:10:16.325Z,1287.00
2023-05-16T12:11:15.303Z,1290.00
2023-05-16T12:12:15.281Z,1287.00
2023-05-16T12:13:16.756Z,1297.00
2023-05-16T12:14:16.273Z,1296.00
2023-05-16T12:15:16.263Z,1290.00
2023-05-16T12:16:15.281Z,1294.00
2023-05-16T12:17:16.257Z,1265.00
2023-05-16T12:18:16.303Z,1267.00
2023-05-16T12:19:16.270Z,1294.00
2023-05-16T12:20:16.281Z,1268.00
2023-05-16T12:21:15.251Z,1285.00
2023-05-16T12:22:15.205Z,1276.00
2023-05-16T12:23:16.280Z,1289.00